Needles Airport
KEED : now visible

Airfield :











YOU CAN JOIN US ON...

 
LOGIN :

Register | Disclaimer

   EN    FR    IT 

 









Legend :    VFR   Marginal VFR   IFR   Intensive IFR   Very Intensive IFR
Visi :
Ceiling :
>= 8 km
>= 3000ft
5 to 8 km
1000 to 3000 ft
1500m to 5 km
500 to 1000 ft
800 to 1500m
200 to 500 ft
< 800m
< 200 ft
Symbols :   Thunderstorms  Fog  Heavy snow  Heavy precipitations  Wind > 20 kt






- Airport Elevation : 983 ft


KEED - Needles

CURRENT METAR :
  • 211956Z AUTO 19015G22KT 10SM CLR 29/M17 A2965 RMK AO2 SLP011 T02891167 TSNO

EXPIRED METARs :
  • 211856Z AUTO 23014G24KT 190V260 10SM CLR 29/M13 A2967 RMK AO2 SLP017 T02891133 TSNO
  • 211756Z AUTO 20014G20KT 10SM CLR 27/M11 A2969 RMK AO2 SLP025 T02721111 10272 20211 50006 TSNO

TAF KEED
Valid from the 21 at 18:00 until the 22 at 18:00 UTC


211720Z 2118/2218 21010KT P6SM FEW250
FM211900 24015G25KT P6SM SKC
FM220200 27012G20KT P6SM SKC
FM220800 21007KT P6SM SKC
KZLA FIR / North America



MET'MAP, your aeronautical weather chart ! - Copyright ORBIFLY December 2007 - Disclaimer

ORBIFLY MET'MAP TEAM :

Programming & Development : Alexandra Zaïnal
Concept & original design : Baudouin d'Aumeries
Assistance for programming : Marc-Olivier Méhu
Technical & hardware support : Manuel Goepfert

Contact : metmap@orbifly.com




SOURCES & CREDITS :

   NOAA       Earth
Advisory